sensor_id;sensor_type;location;lat;lon;timestamp;P1;durP1;ratioP1;P2;durP2;ratioP2
62863;SDS011;48954;59.950;11.014;2022-12-18T00:02:11;38.00;;;15.20;;
62863;SDS011;48954;59.950;11.014;2022-12-18T00:04:38;34.40;;;13.60;;
62863;SDS011;48954;59.950;11.014;2022-12-18T00:07:04;21.50;;;9.50;;
62863;SDS011;48954;59.950;11.014;2022-12-18T00:09:36;35.00;;;14.90;;
62863;SDS011;48954;59.950;11.014;2022-12-18T00:12:02;24.80;;;10.10;;
62863;SDS011;48954;59.950;11.014;2022-12-18T00:14:29;41.50;;;15.80;;
62863;SDS011;48954;59.950;11.014;2022-12-18T00:16:55;22.30;;;10.70;;
62863;SDS011;48954;59.950;11.014;2022-12-18T00:19:22;25.50;;;11.80;;
62863;SDS011;48954;59.950;11.014;2022-12-18T00:21:48;18.10;;;7.40;;
62863;SDS011;48954;59.950;11.014;2022-12-18T00:24:15;23.20;;;10.60;;
62863;SDS011;48954;59.950;11.014;2022-12-18T00:26:41;43.50;;;16.70;;
62863;SDS011;48954;59.950;11.014;2022-12-18T00:29:10;36.90;;;15.00;;
62863;SDS011;48954;59.950;11.014;2022-12-18T00:31:41;41.90;;;15.20;;
62863;SDS011;48954;59.950;11.014;2022-12-18T00:34:10;25.80;;;13.00;;
62863;SDS011;48954;59.950;11.014;2022-12-18T00:39:20;34.70;;;14.70;;
62863;SDS011;48954;59.950;11.014;2022-12-18T00:41:46;38.80;;;16.10;;
62863;SDS011;48954;59.950;11.014;2022-12-18T00:44:15;45.10;;;17.70;;
62863;SDS011;48954;59.950;11.014;2022-12-18T00:46:47;38.70;;;14.80;;
62863;SDS011;48954;59.950;11.014;2022-12-18T00:49:17;44.80;;;16.80;;
62863;SDS011;48954;59.950;11.014;2022-12-18T00:51:45;50.70;;;18.60;;
62863;SDS011;48954;59.950;11.014;2022-12-18T00:54:11;27.20;;;12.10;;
62863;SDS011;48954;59.950;11.014;2022-12-18T00:56:38;27.50;;;11.70;;
62863;SDS011;48954;59.950;11.014;2022-12-18T00:59:10;24.40;;;10.40;;
62863;SDS011;48954;59.950;11.014;2022-12-18T01:01:36;18.20;;;8.80;;
62863;SDS011;48954;59.950;11.014;2022-12-18T01:04:03;27.10;;;12.20;;
62863;SDS011;48954;59.950;11.014;2022-12-18T01:06:30;24.10;;;10.40;;
62863;SDS011;48954;59.950;11.014;2022-12-18T01:08:56;39.60;;;15.40;;
62863;SDS011;48954;59.950;11.014;2022-12-18T01:11:23;51.60;;;18.10;;
62863;SDS011;48954;59.950;11.014;2022-12-18T01:13:51;34.10;;;15.70;;
62863;SDS011;48954;59.950;11.014;2022-12-18T01:16:18;29.30;;;11.80;;
62863;SDS011;48954;59.950;11.014;2022-12-18T01:18:45;36.20;;;14.00;;
62863;SDS011;48954;59.950;11.014;2022-12-18T01:21:14;43.50;;;17.70;;
62863;SDS011;48954;59.950;11.014;2022-12-18T01:23:42;26.10;;;11.50;;
62863;SDS011;48954;59.950;11.014;2022-12-18T01:26:10;32.80;;;12.80;;
62863;SDS011;48954;59.950;11.014;2022-12-18T01:28:38;21.90;;;10.00;;
62863;SDS011;48954;59.950;11.014;2022-12-18T01:33:40;29.60;;;12.20;;
62863;SDS011;48954;59.950;11.014;2022-12-18T01:36:08;23.10;;;9.80;;
62863;SDS011;48954;59.950;11.014;2022-12-18T01:41:08;24.40;;;10.60;;
62863;SDS011;48954;59.950;11.014;2022-12-18T01:46:10;25.60;;;11.70;;
62863;SDS011;48954;59.950;11.014;2022-12-18T01:48:38;35.10;;;12.60;;
62863;SDS011;48954;59.950;11.014;2022-12-18T01:51:06;14.90;;;6.40;;
62863;SDS011;48954;59.950;11.014;2022-12-18T01:53:36;8.90;;;3.90;;
62863;SDS011;48954;59.950;11.014;2022-12-18T01:56:04;12.40;;;4.40;;
62863;SDS011;48954;59.950;11.014;2022-12-18T02:01:25;12.00;;;4.40;;
62863;SDS011;48954;59.950;11.014;2022-12-18T02:03:52;18.40;;;5.50;;
62863;SDS011;48954;59.950;11.014;2022-12-18T02:06:20;17.00;;;5.10;;
62863;SDS011;48954;59.950;11.014;2022-12-18T02:09:06;14.20;;;5.10;;
62863;SDS011;48954;59.950;11.014;2022-12-18T02:14:44;10.20;;;3.30;;
62863;SDS011;48954;59.950;11.014;2022-12-18T02:17:21;13.00;;;3.80;;
62863;SDS011;48954;59.950;11.014;2022-12-18T02:31:35;20.00;;;4.90;;
62863;SDS011;48954;59.950;11.014;2022-12-18T02:34:21;14.30;;;4.20;;
62863;SDS011;48954;59.950;11.014;2022-12-18T02:40:28;14.40;;;4.70;;
62863;SDS011;48954;59.950;11.014;2022-12-18T02:43:53;13.10;;;4.20;;
62863;SDS011;48954;59.950;11.014;2022-12-18T02:46:31;22.60;;;5.80;;
62863;SDS011;48954;59.950;11.014;2022-12-18T02:49:06;13.90;;;4.20;;
62863;SDS011;48954;59.950;11.014;2022-12-18T02:54:51;10.20;;;3.00;;
62863;SDS011;48954;59.950;11.014;2022-12-18T03:00:22;7.60;;;3.00;;
62863;SDS011;48954;59.950;11.014;2022-12-18T03:02:57;13.80;;;3.70;;
62863;SDS011;48954;59.950;11.014;2022-12-18T03:06:02;18.60;;;4.20;;
62863;SDS011;48954;59.950;11.014;2022-12-18T03:08:40;11.50;;;3.70;;
62863;SDS011;48954;59.950;11.014;2022-12-18T03:11:12;15.70;;;3.70;;
62863;SDS011;48954;59.950;11.014;2022-12-18T03:13:42;14.40;;;3.60;;
62863;SDS011;48954;59.950;11.014;2022-12-18T03:16:15;7.70;;;3.20;;
62863;SDS011;48954;59.950;11.014;2022-12-18T03:18:51;10.20;;;3.40;;
62863;SDS011;48954;59.950;11.014;2022-12-18T03:21:23;8.70;;;3.10;;
62863;SDS011;48954;59.950;11.014;2022-12-18T03:23:56;12.90;;;3.60;;
62863;SDS011;48954;59.950;11.014;2022-12-18T03:26:26;7.10;;;2.30;;
62863;SDS011;48954;59.950;11.014;2022-12-18T03:28:56;21.70;;;3.70;;
62863;SDS011;48954;59.950;11.014;2022-12-18T03:31:29;9.30;;;3.00;;
62863;SDS011;48954;59.950;11.014;2022-12-18T03:34:13;9.50;;;2.80;;
62863;SDS011;48954;59.950;11.014;2022-12-18T03:36:44;7.10;;;2.60;;
62863;SDS011;48954;59.950;11.014;2022-12-18T03:39:13;10.90;;;3.30;;
62863;SDS011;48954;59.950;11.014;2022-12-18T03:41:44;9.10;;;3.00;;
62863;SDS011;48954;59.950;11.014;2022-12-18T03:47:09;8.30;;;2.90;;
62863;SDS011;48954;59.950;11.014;2022-12-18T03:50:00;7.00;;;2.80;;
62863;SDS011;48954;59.950;11.014;2022-12-18T03:52:35;9.60;;;3.50;;
62863;SDS011;48954;59.950;11.014;2022-12-18T03:55:05;10.00;;;3.20;;
62863;SDS011;48954;59.950;11.014;2022-12-18T03:57:35;7.00;;;2.70;;
62863;SDS011;48954;59.950;11.014;2022-12-18T04:00:05;11.10;;;3.60;;
62863;SDS011;48954;59.950;11.014;2022-12-18T04:02:34;8.10;;;3.20;;
62863;SDS011;48954;59.950;11.014;2022-12-18T04:05:19;8.20;;;3.10;;
62863;SDS011;48954;59.950;11.014;2022-12-18T04:08:04;11.80;;;3.70;;
62863;SDS011;48954;59.950;11.014;2022-12-18T04:11:05;10.80;;;3.50;;
62863;SDS011;48954;59.950;11.014;2022-12-18T04:13:35;13.80;;;3.50;;
62863;SDS011;48954;59.950;11.014;2022-12-18T04:16:17;12.70;;;4.20;;
62863;SDS011;48954;59.950;11.014;2022-12-18T04:18:58;13.90;;;4.70;;
62863;SDS011;48954;59.950;11.014;2022-12-18T04:21:38;19.60;;;4.50;;
62863;SDS011;48954;59.950;11.014;2022-12-18T05:49:16;6.00;;;2.10;;
62863;SDS011;48954;59.950;11.014;2022-12-18T05:52:01;7.00;;;2.20;;
62863;SDS011;48954;59.950;11.014;2022-12-18T05:55:22;6.20;;;1.80;;
62863;SDS011;48954;59.950;11.014;2022-12-18T06:04:20;5.30;;;1.90;;
62863;SDS011;48954;59.950;11.014;2022-12-18T06:09:46;5.50;;;1.40;;
62863;SDS011;48954;59.950;11.014;2022-12-18T06:12:47;2.90;;;1.50;;
62863;SDS011;48954;59.950;11.014;2022-12-18T06:15:46;3.00;;;1.50;;
62863;SDS011;48954;59.950;11.014;2022-12-18T06:18:27;3.90;;;1.70;;
62863;SDS011;48954;59.950;11.014;2022-12-18T06:20:56;4.90;;;1.50;;
62863;SDS011;48954;59.950;11.014;2022-12-18T06:23:40;5.50;;;1.60;;
62863;SDS011;48954;59.950;11.014;2022-12-18T06:26:21;4.40;;;1.80;;
62863;SDS011;48954;59.950;11.014;2022-12-18T06:29:06;4.50;;;1.60;;
62863;SDS011;48954;59.950;11.014;2022-12-18T06:32:07;5.90;;;1.70;;
62863;SDS011;48954;59.950;11.014;2022-12-18T06:35:05;2.70;;;1.60;;
62863;SDS011;48954;59.950;11.014;2022-12-18T06:37:46;2.30;;;1.40;;
62863;SDS011;48954;59.950;11.014;2022-12-18T06:40:29;5.60;;;1.70;;
62863;SDS011;48954;59.950;11.014;2022-12-18T06:43:51;5.60;;;2.00;;
62863;SDS011;48954;59.950;11.014;2022-12-18T06:46:22;2.90;;;1.30;;
62863;SDS011;48954;59.950;11.014;2022-12-18T06:49:43;4.00;;;1.50;;
62863;SDS011;48954;59.950;11.014;2022-12-18T06:52:10;3.60;;;1.70;;
62863;SDS011;48954;59.950;11.014;2022-12-18T06:54:52;2.90;;;1.40;;
62863;SDS011;48954;59.950;11.014;2022-12-18T06:57:49;3.60;;;1.60;;
62863;SDS011;48954;59.950;11.014;2022-12-18T07:00:34;2.80;;;1.30;;
62863;SDS011;48954;59.950;11.014;2022-12-18T07:03:24;3.50;;;1.40;;
62863;SDS011;48954;59.950;11.014;2022-12-18T07:06:14;3.50;;;1.60;;
62863;SDS011;48954;59.950;11.014;2022-12-18T07:09:15;5.00;;;1.60;;
62863;SDS011;48954;59.950;11.014;2022-12-18T07:11:56;3.10;;;1.40;;
62863;SDS011;48954;59.950;11.014;2022-12-18T07:14:36;4.80;;;1.60;;
62863;SDS011;48954;59.950;11.014;2022-12-18T07:17:16;4.70;;;1.40;;
62863;SDS011;48954;59.950;11.014;2022-12-18T07:19:58;4.10;;;1.50;;
62863;SDS011;48954;59.950;11.014;2022-12-18T07:22:39;3.30;;;1.40;;
62863;SDS011;48954;59.950;11.014;2022-12-18T07:25:25;3.60;;;1.00;;
62863;SDS011;48954;59.950;11.014;2022-12-18T07:28:08;2.40;;;1.50;;
62863;SDS011;48954;59.950;11.014;2022-12-18T07:30:37;3.90;;;1.10;;
62863;SDS011;48954;59.950;11.014;2022-12-18T07:33:08;3.50;;;1.10;;
62863;SDS011;48954;59.950;11.014;2022-12-18T07:35:37;5.40;;;1.50;;
62863;SDS011;48954;59.950;11.014;2022-12-18T07:38:12;5.80;;;1.50;;
62863;SDS011;48954;59.950;11.014;2022-12-18T07:40:59;5.90;;;1.70;;
62863;SDS011;48954;59.950;11.014;2022-12-18T07:43:46;6.80;;;1.40;;
62863;SDS011;48954;59.950;11.014;2022-12-18T07:46:28;3.70;;;1.40;;
62863;SDS011;48954;59.950;11.014;2022-12-18T07:49:08;3.50;;;1.40;;
62863;SDS011;48954;59.950;11.014;2022-12-18T07:51:37;3.00;;;1.50;;
62863;SDS011;48954;59.950;11.014;2022-12-18T07:54:12;4.70;;;1.80;;
62863;SDS011;48954;59.950;11.014;2022-12-18T07:56:40;4.20;;;1.60;;
62863;SDS011;48954;59.950;11.014;2022-12-18T07:59:20;3.70;;;1.80;;
62863;SDS011;48954;59.950;11.014;2022-12-18T08:01:50;3.90;;;1.50;;
62863;SDS011;48954;59.950;11.014;2022-12-18T08:04:28;3.50;;;1.70;;
62863;SDS011;48954;59.950;11.014;2022-12-18T08:07:08;5.10;;;1.90;;
62863;SDS011;48954;59.950;11.014;2022-12-18T08:09:37;7.90;;;2.10;;
62863;SDS011;48954;59.950;11.014;2022-12-18T08:12:13;4.40;;;2.10;;
62863;SDS011;48954;59.950;11.014;2022-12-18T08:14:54;4.30;;;1.70;;
62863;SDS011;48954;59.950;11.014;2022-12-18T08:17:31;8.80;;;2.00;;
62863;SDS011;48954;59.950;11.014;2022-12-18T08:19:58;5.00;;;1.80;;
62863;SDS011;48954;59.950;11.014;2022-12-18T08:22:35;4.10;;;1.60;;
62863;SDS011;48954;59.950;11.014;2022-12-18T08:25:09;5.90;;;2.30;;
62863;SDS011;48954;59.950;11.014;2022-12-18T08:28:01;7.50;;;2.80;;
62863;SDS011;48954;59.950;11.014;2022-12-18T08:30:28;4.40;;;2.10;;
62863;SDS011;48954;59.950;11.014;2022-12-18T08:32:56;5.70;;;2.30;;
62863;SDS011;48954;59.950;11.014;2022-12-18T08:35:37;4.70;;;2.10;;
62863;SDS011;48954;59.950;11.014;2022-12-18T08:38:04;4.90;;;1.70;;
62863;SDS011;48954;59.950;11.014;2022-12-18T08:40:36;4.90;;;2.20;;
62863;SDS011;48954;59.950;11.014;2022-12-18T08:43:03;6.10;;;1.80;;
62863;SDS011;48954;59.950;11.014;2022-12-18T08:45:46;4.40;;;1.90;;
62863;SDS011;48954;59.950;11.014;2022-12-18T08:48:12;5.80;;;2.40;;
62863;SDS011;48954;59.950;11.014;2022-12-18T08:50:53;5.70;;;2.10;;
62863;SDS011;48954;59.950;11.014;2022-12-18T08:53:35;5.10;;;2.00;;
62863;SDS011;48954;59.950;11.014;2022-12-18T08:56:02;8.20;;;2.20;;
62863;SDS011;48954;59.950;11.014;2022-12-18T08:58:29;4.40;;;1.60;;
62863;SDS011;48954;59.950;11.014;2022-12-18T09:01:03;4.20;;;1.70;;
62863;SDS011;48954;59.950;11.014;2022-12-18T09:03:32;3.50;;;1.90;;
62863;SDS011;48954;59.950;11.014;2022-12-18T09:05:59;4.90;;;2.00;;
62863;SDS011;48954;59.950;11.014;2022-12-18T09:08:29;5.30;;;1.70;;
62863;SDS011;48954;59.950;11.014;2022-12-18T09:11:18;5.50;;;2.20;;
62863;SDS011;48954;59.950;11.014;2022-12-18T09:13:48;4.40;;;1.80;;
62863;SDS011;48954;59.950;11.014;2022-12-18T09:16:15;8.10;;;2.40;;
62863;SDS011;48954;59.950;11.014;2022-12-18T09:18:56;7.30;;;2.60;;
62863;SDS011;48954;59.950;11.014;2022-12-18T09:21:31;9.20;;;2.30;;
62863;SDS011;48954;59.950;11.014;2022-12-18T09:24:01;5.20;;;2.40;;
62863;SDS011;48954;59.950;11.014;2022-12-18T09:26:28;4.30;;;1.90;;
62863;SDS011;48954;59.950;11.014;2022-12-18T09:28:54;5.30;;;2.10;;
62863;SDS011;48954;59.950;11.014;2022-12-18T09:31:21;4.40;;;1.50;;
62863;SDS011;48954;59.950;11.014;2022-12-18T09:33:49;6.20;;;1.50;;
62863;SDS011;48954;59.950;11.014;2022-12-18T09:36:17;7.30;;;1.80;;
62863;SDS011;48954;59.950;11.014;2022-12-18T09:38:44;7.20;;;1.80;;
62863;SDS011;48954;59.950;11.014;2022-12-18T09:41:27;7.30;;;1.80;;
62863;SDS011;48954;59.950;11.014;2022-12-18T09:44:01;4.60;;;1.70;;
62863;SDS011;48954;59.950;11.014;2022-12-18T09:46:38;7.70;;;2.40;;
62863;SDS011;48954;59.950;11.014;2022-12-18T09:49:11;6.20;;;2.20;;
62863;SDS011;48954;59.950;11.014;2022-12-18T09:51:49;8.10;;;2.30;;
62863;SDS011;48954;59.950;11.014;2022-12-18T09:54:26;8.60;;;2.90;;
62863;SDS011;48954;59.950;11.014;2022-12-18T09:57:03;8.60;;;3.20;;
62863;SDS011;48954;59.950;11.014;2022-12-18T09:59:36;6.50;;;3.10;;
62863;SDS011;48954;59.950;11.014;2022-12-18T10:02:14;7.40;;;3.10;;
62863;SDS011;48954;59.950;11.014;2022-12-18T10:04:51;8.30;;;3.90;;
62863;SDS011;48954;59.950;11.014;2022-12-18T10:10:51;10.80;;;3.80;;
62863;SDS011;48954;59.950;11.014;2022-12-18T10:21:24;8.40;;;2.60;;
62863;SDS011;48954;59.950;11.014;2022-12-18T10:27:11;4.80;;;1.70;;
62863;SDS011;48954;59.950;11.014;2022-12-18T10:29:42;5.10;;;1.80;;
62863;SDS011;48954;59.950;11.014;2022-12-18T10:32:16;5.50;;;2.00;;
62863;SDS011;48954;59.950;11.014;2022-12-18T10:34:46;7.70;;;2.80;;
62863;SDS011;48954;59.950;11.014;2022-12-18T10:37:17;7.90;;;2.50;;
62863;SDS011;48954;59.950;11.014;2022-12-18T10:39:46;7.90;;;2.60;;
62863;SDS011;48954;59.950;11.014;2022-12-18T10:42:33;4.50;;;1.60;;
62863;SDS011;48954;59.950;11.014;2022-12-18T10:45:18;6.20;;;1.30;;
62863;SDS011;48954;59.950;11.014;2022-12-18T10:47:44;13.90;;;2.00;;
62863;SDS011;48954;59.950;11.014;2022-12-18T10:50:29;5.60;;;1.80;;
62863;SDS011;48954;59.950;11.014;2022-12-18T10:52:59;7.30;;;1.90;;
62863;SDS011;48954;59.950;11.014;2022-12-18T10:56:09;5.70;;;1.80;;
62863;SDS011;48954;59.950;11.014;2022-12-18T10:58:38;6.20;;;2.00;;
62863;SDS011;48954;59.950;11.014;2022-12-18T11:01:07;4.70;;;1.80;;
62863;SDS011;48954;59.950;11.014;2022-12-18T11:06:09;5.00;;;1.80;;
62863;SDS011;48954;59.950;11.014;2022-12-18T11:09:06;5.60;;;2.00;;
62863;SDS011;48954;59.950;11.014;2022-12-18T11:11:53;5.60;;;2.10;;
62863;SDS011;48954;59.950;11.014;2022-12-18T11:14:23;7.10;;;2.50;;
62863;SDS011;48954;59.950;11.014;2022-12-18T11:16:52;4.80;;;1.80;;
62863;SDS011;48954;59.950;11.014;2022-12-18T11:21:58;5.60;;;2.70;;
62863;SDS011;48954;59.950;11.014;2022-12-18T11:24:30;7.20;;;2.40;;
62863;SDS011;48954;59.950;11.014;2022-12-18T11:27:00;5.50;;;2.30;;
62863;SDS011;48954;59.950;11.014;2022-12-18T11:29:42;5.60;;;2.40;;
62863;SDS011;48954;59.950;11.014;2022-12-18T11:35:20;9.10;;;3.90;;
62863;SDS011;48954;59.950;11.014;2022-12-18T11:37:56;6.90;;;3.00;;
62863;SDS011;48954;59.950;11.014;2022-12-18T11:40:36;12.20;;;5.10;;
62863;SDS011;48954;59.950;11.014;2022-12-18T11:43:13;10.40;;;4.30;;
62863;SDS011;48954;59.950;11.014;2022-12-18T11:45:48;18.00;;;6.50;;
62863;SDS011;48954;59.950;11.014;2022-12-18T11:54:19;9.50;;;3.00;;
62863;SDS011;48954;59.950;11.014;2022-12-18T12:00:02;8.40;;;2.40;;
62863;SDS011;48954;59.950;11.014;2022-12-18T12:07:59;7.00;;;2.80;;
62863;SDS011;48954;59.950;11.014;2022-12-18T12:13:35;5.60;;;2.10;;
62863;SDS011;48954;59.950;11.014;2022-12-18T12:16:25;8.80;;;2.80;;
62863;SDS011;48954;59.950;11.014;2022-12-18T12:19:12;8.60;;;3.10;;
62863;SDS011;48954;59.950;11.014;2022-12-18T12:35:30;9.10;;;3.20;;
62863;SDS011;48954;59.950;11.014;2022-12-18T12:38:23;8.10;;;3.60;;
62863;SDS011;48954;59.950;11.014;2022-12-18T12:41:12;11.80;;;4.90;;
62863;SDS011;48954;59.950;11.014;2022-12-18T12:43:43;11.20;;;4.80;;
62863;SDS011;48954;59.950;11.014;2022-12-18T12:46:13;12.60;;;4.70;;
62863;SDS011;48954;59.950;11.014;2022-12-18T12:48:46;7.90;;;4.00;;
62863;SDS011;48954;59.950;11.014;2022-12-18T12:53:47;11.90;;;5.90;;
62863;SDS011;48954;59.950;11.014;2022-12-18T12:56:15;16.00;;;5.70;;
62863;SDS011;48954;59.950;11.014;2022-12-18T12:59:02;41.10;;;16.70;;
62863;SDS011;48954;59.950;11.014;2022-12-18T13:02:04;13.60;;;6.00;;
62863;SDS011;48954;59.950;11.014;2022-12-18T13:05:23;35.40;;;14.10;;
62863;SDS011;48954;59.950;11.014;2022-12-18T13:15:23;26.60;;;11.00;;
62863;SDS011;48954;59.950;11.014;2022-12-18T13:18:11;20.10;;;9.90;;
62863;SDS011;48954;59.950;11.014;2022-12-18T13:20:50;22.20;;;9.90;;
62863;SDS011;48954;59.950;11.014;2022-12-18T13:23:35;24.10;;;10.00;;
62863;SDS011;48954;59.950;11.014;2022-12-18T13:31:11;50.60;;;21.80;;
62863;SDS011;48954;59.950;11.014;2022-12-18T13:33:40;26.10;;;12.00;;
62863;SDS011;48954;59.950;11.014;2022-12-18T13:38:43;27.30;;;13.00;;
62863;SDS011;48954;59.950;11.014;2022-12-18T13:41:26;18.60;;;9.60;;
62863;SDS011;48954;59.950;11.014;2022-12-18T13:43:53;15.00;;;7.40;;
62863;SDS011;48954;59.950;11.014;2022-12-18T13:51:39;25.00;;;11.60;;
62863;SDS011;48954;59.950;11.014;2022-12-18T13:56:48;19.20;;;8.30;;
62863;SDS011;48954;59.950;11.014;2022-12-18T13:59:16;24.80;;;10.80;;
62863;SDS011;48954;59.950;11.014;2022-12-18T14:01:44;14.30;;;7.20;;
62863;SDS011;48954;59.950;11.014;2022-12-18T14:04:34;15.20;;;6.90;;
62863;SDS011;48954;59.950;11.014;2022-12-18T14:07:03;24.90;;;11.10;;
62863;SDS011;48954;59.950;11.014;2022-12-18T14:09:35;26.30;;;12.80;;
62863;SDS011;48954;59.950;11.014;2022-12-18T14:14:41;30.00;;;13.00;;
62863;SDS011;48954;59.950;11.014;2022-12-18T14:17:11;30.40;;;13.90;;
62863;SDS011;48954;59.950;11.014;2022-12-18T14:19:43;26.00;;;11.40;;
62863;SDS011;48954;59.950;11.014;2022-12-18T14:22:14;25.00;;;11.00;;
62863;SDS011;48954;59.950;11.014;2022-12-18T14:24:46;26.20;;;10.60;;
62863;SDS011;48954;59.950;11.014;2022-12-18T14:27:21;21.20;;;9.80;;
62863;SDS011;48954;59.950;11.014;2022-12-18T14:29:51;24.10;;;10.10;;
62863;SDS011;48954;59.950;11.014;2022-12-18T14:32:19;23.40;;;10.20;;
62863;SDS011;48954;59.950;11.014;2022-12-18T14:34:48;27.00;;;12.80;;
62863;SDS011;48954;59.950;11.014;2022-12-18T14:39:55;22.10;;;10.70;;
62863;SDS011;48954;59.950;11.014;2022-12-18T14:42:24;22.00;;;10.40;;
62863;SDS011;48954;59.950;11.014;2022-12-18T14:47:58;23.50;;;12.30;;
62863;SDS011;48954;59.950;11.014;2022-12-18T14:50:26;26.60;;;12.90;;
62863;SDS011;48954;59.950;11.014;2022-12-18T14:52:52;31.50;;;14.80;;
62863;SDS011;48954;59.950;11.014;2022-12-18T14:55:19;25.10;;;13.20;;
62863;SDS011;48954;59.950;11.014;2022-12-18T14:57:51;25.60;;;11.80;;
62863;SDS011;48954;59.950;11.014;2022-12-18T15:00:21;25.50;;;12.10;;
62863;SDS011;48954;59.950;11.014;2022-12-18T15:02:52;36.30;;;20.90;;
62863;SDS011;48954;59.950;11.014;2022-12-18T15:05:28;20.80;;;11.80;;
62863;SDS011;48954;59.950;11.014;2022-12-18T15:07:58;51.30;;;21.80;;
62863;SDS011;48954;59.950;11.014;2022-12-18T15:10:26;31.60;;;15.90;;
62863;SDS011;48954;59.950;11.014;2022-12-18T15:18:01;44.70;;;20.00;;
62863;SDS011;48954;59.950;11.014;2022-12-18T15:20:49;50.90;;;21.70;;
62863;SDS011;48954;59.950;11.014;2022-12-18T15:26:25;31.00;;;16.30;;
62863;SDS011;48954;59.950;11.014;2022-12-18T15:28:55;38.00;;;17.30;;
62863;SDS011;48954;59.950;11.014;2022-12-18T15:36:16;48.80;;;21.10;;
62863;SDS011;48954;59.950;11.014;2022-12-18T15:38:51;26.70;;;12.10;;
62863;SDS011;48954;59.950;11.014;2022-12-18T15:41:19;24.90;;;12.40;;
62863;SDS011;48954;59.950;11.014;2022-12-18T15:43:48;26.70;;;13.90;;
62863;SDS011;48954;59.950;11.014;2022-12-18T15:46:20;28.30;;;12.90;;
62863;SDS011;48954;59.950;11.014;2022-12-18T15:48:49;26.70;;;13.00;;
62863;SDS011;48954;59.950;11.014;2022-12-18T15:51:21;29.40;;;13.80;;
62863;SDS011;48954;59.950;11.014;2022-12-18T15:53:51;21.80;;;11.40;;
62863;SDS011;48954;59.950;11.014;2022-12-18T15:56:20;37.00;;;17.00;;
62863;SDS011;48954;59.950;11.014;2022-12-18T15:58:48;26.90;;;11.20;;
62863;SDS011;48954;59.950;11.014;2022-12-18T16:01:16;32.60;;;15.30;;
62863;SDS011;48954;59.950;11.014;2022-12-18T16:03:43;33.20;;;17.40;;
62863;SDS011;48954;59.950;11.014;2022-12-18T16:06:10;51.50;;;21.80;;
62863;SDS011;48954;59.950;11.014;2022-12-18T16:08:36;25.60;;;12.00;;
62863;SDS011;48954;59.950;11.014;2022-12-18T16:11:03;29.10;;;15.00;;
62863;SDS011;48954;59.950;11.014;2022-12-18T16:13:30;38.50;;;17.70;;
62863;SDS011;48954;59.950;11.014;2022-12-18T16:15:56;96.20;;;34.00;;
62863;SDS011;48954;59.950;11.014;2022-12-18T16:18:28;45.90;;;21.50;;
62863;SDS011;48954;59.950;11.014;2022-12-18T16:20:55;43.00;;;21.20;;
62863;SDS011;48954;59.950;11.014;2022-12-18T16:23:30;43.40;;;22.00;;
62863;SDS011;48954;59.950;11.014;2022-12-18T16:25:56;42.10;;;19.70;;
62863;SDS011;48954;59.950;11.014;2022-12-18T16:28:23;41.50;;;20.90;;
62863;SDS011;48954;59.950;11.014;2022-12-18T16:30:50;44.90;;;21.70;;
62863;SDS011;48954;59.950;11.014;2022-12-18T16:33:18;51.00;;;22.10;;
62863;SDS011;48954;59.950;11.014;2022-12-18T16:35:50;43.10;;;19.70;;
62863;SDS011;48954;59.950;11.014;2022-12-18T16:38:21;39.50;;;18.10;;
62863;SDS011;48954;59.950;11.014;2022-12-18T16:40:48;51.50;;;20.40;;
62863;SDS011;48954;59.950;11.014;2022-12-18T16:43:16;48.10;;;21.20;;
62863;SDS011;48954;59.950;11.014;2022-12-18T16:45:42;57.50;;;24.80;;
62863;SDS011;48954;59.950;11.014;2022-12-18T16:48:10;38.50;;;18.50;;
62863;SDS011;48954;59.950;11.014;2022-12-18T16:50:37;45.30;;;21.10;;
62863;SDS011;48954;59.950;11.014;2022-12-18T16:53:06;43.30;;;21.10;;
62863;SDS011;48954;59.950;11.014;2022-12-18T16:55:33;46.80;;;24.00;;
62863;SDS011;48954;59.950;11.014;2022-12-18T16:58:00;48.80;;;23.40;;
62863;SDS011;48954;59.950;11.014;2022-12-18T17:00:26;55.00;;;25.50;;
62863;SDS011;48954;59.950;11.014;2022-12-18T17:02:55;50.60;;;23.00;;
62863;SDS011;48954;59.950;11.014;2022-12-18T17:05:35;46.10;;;20.70;;
62863;SDS011;48954;59.950;11.014;2022-12-18T17:08:02;32.40;;;15.50;;
62863;SDS011;48954;59.950;11.014;2022-12-18T17:10:29;32.80;;;16.00;;
62863;SDS011;48954;59.950;11.014;2022-12-18T17:12:56;33.80;;;16.80;;
62863;SDS011;48954;59.950;11.014;2022-12-18T17:15:22;33.00;;;17.20;;
62863;SDS011;48954;59.950;11.014;2022-12-18T17:17:56;36.60;;;17.20;;
62863;SDS011;48954;59.950;11.014;2022-12-18T17:20:24;41.00;;;19.00;;
62863;SDS011;48954;59.950;11.014;2022-12-18T17:22:51;37.60;;;17.80;;
62863;SDS011;48954;59.950;11.014;2022-12-18T17:25:18;38.70;;;16.50;;
62863;SDS011;48954;59.950;11.014;2022-12-18T17:27:45;36.80;;;17.20;;
62863;SDS011;48954;59.950;11.014;2022-12-18T17:30:13;28.70;;;13.30;;
62863;SDS011;48954;59.950;11.014;2022-12-18T17:32:44;28.90;;;14.20;;
62863;SDS011;48954;59.950;11.014;2022-12-18T17:35:34;41.40;;;18.10;;
62863;SDS011;48954;59.950;11.014;2022-12-18T17:38:01;69.20;;;28.30;;
62863;SDS011;48954;59.950;11.014;2022-12-18T17:40:31;67.90;;;28.90;;
62863;SDS011;48954;59.950;11.014;2022-12-18T17:43:33;56.90;;;24.10;;
62863;SDS011;48954;59.950;11.014;2022-12-18T17:46:16;95.50;;;36.20;;
62863;SDS011;48954;59.950;11.014;2022-12-18T17:49:13;88.40;;;34.10;;
62863;SDS011;48954;59.950;11.014;2022-12-18T17:52:16;129.50;;;46.70;;
62863;SDS011;48954;59.950;11.014;2022-12-18T17:55:35;66.70;;;29.60;;
62863;SDS011;48954;59.950;11.014;2022-12-18T17:58:42;113.50;;;43.50;;
62863;SDS011;48954;59.950;11.014;2022-12-18T18:01:45;105.40;;;44.00;;
62863;SDS011;48954;59.950;11.014;2022-12-18T18:04:33;130.80;;;53.00;;
62863;SDS011;48954;59.950;11.014;2022-12-18T18:07:37;99.50;;;39.50;;
62863;SDS011;48954;59.950;11.014;2022-12-18T18:10:40;114.40;;;46.80;;
62863;SDS011;48954;59.950;11.014;2022-12-18T18:47:24;43.70;;;18.70;;
62863;SDS011;48954;59.950;11.014;2022-12-18T18:49:52;52.30;;;22.90;;
62863;SDS011;48954;59.950;11.014;2022-12-18T18:52:19;106.20;;;41.70;;
62863;SDS011;48954;59.950;11.014;2022-12-18T18:54:56;69.60;;;27.80;;
62863;SDS011;48954;59.950;11.014;2022-12-18T18:57:24;86.30;;;35.30;;
62863;SDS011;48954;59.950;11.014;2022-12-18T18:59:51;54.80;;;24.80;;
62863;SDS011;48954;59.950;11.014;2022-12-18T19:02:32;76.60;;;30.20;;
62863;SDS011;48954;59.950;11.014;2022-12-18T19:05:21;69.60;;;28.70;;
62863;SDS011;48954;59.950;11.014;2022-12-18T19:08:02;84.10;;;31.70;;
62863;SDS011;48954;59.950;11.014;2022-12-18T19:10:42;103.10;;;39.60;;
62863;SDS011;48954;59.950;11.014;2022-12-18T19:13:16;80.30;;;31.40;;
62863;SDS011;48954;59.950;11.014;2022-12-18T19:16:07;87.40;;;33.20;;
62863;SDS011;48954;59.950;11.014;2022-12-18T19:18:48;45.10;;;18.80;;
62863;SDS011;48954;59.950;11.014;2022-12-18T19:21:34;56.30;;;22.60;;
62863;SDS011;48954;59.950;11.014;2022-12-18T19:24:16;99.20;;;31.10;;
62863;SDS011;48954;59.950;11.014;2022-12-18T19:26:43;104.60;;;37.20;;
62863;SDS011;48954;59.950;11.014;2022-12-18T19:29:10;90.20;;;35.60;;
62863;SDS011;48954;59.950;11.014;2022-12-18T19:31:37;77.30;;;31.30;;
62863;SDS011;48954;59.950;11.014;2022-12-18T19:34:04;84.60;;;36.50;;
62863;SDS011;48954;59.950;11.014;2022-12-18T19:36:32;143.80;;;49.70;;
62863;SDS011;48954;59.950;11.014;2022-12-18T19:39:00;119.20;;;44.70;;